createdAt,value
2023-03-16T00:02:11.405Z,94.63
2023-03-16T00:04:39.019Z,95.23
2023-03-16T00:07:08.356Z,96.20
2023-03-16T00:09:41.064Z,96.66
2023-03-16T00:12:17.340Z,96.86
2023-03-16T00:14:46.609Z,96.86
2023-03-16T00:17:19.247Z,96.82
2023-03-16T00:19:55.443Z,97.82
2023-03-16T00:22:28.522Z,96.85
2023-03-16T00:24:56.339Z,99.09
2023-03-16T00:27:25.395Z,98.77
2023-03-16T00:29:57.051Z,99.24
2023-03-16T00:32:29.866Z,99.25
2023-03-16T00:34:57.103Z,97.49
2023-03-16T00:37:26.741Z,99.08
2023-03-16T00:39:57.872Z,99.49
2023-03-16T00:42:27.690Z,99.61
2023-03-16T00:44:57.832Z,99.25
2023-03-16T00:47:31.005Z,99.71
2023-03-16T00:49:59.099Z,98.91
2023-03-16T00:52:27.775Z,99.44
2023-03-16T00:54:56.392Z,98.39
2023-03-16T00:57:25.720Z,97.10
2023-03-16T00:59:53.008Z,97.98
2023-03-16T01:02:23.791Z,98.08
2023-03-16T01:04:52.588Z,97.39
2023-03-16T01:07:20.866Z,97.98
2023-03-16T01:09:48.236Z,98.31
2023-03-16T01:12:18.540Z,98.21
2023-03-16T01:14:49.111Z,99.78
2023-03-16T01:17:17.875Z,99.86
2023-03-16T01:19:46.134Z,99.70
2023-03-16T01:22:13.577Z,98.89
2023-03-16T01:24:42.014Z,97.21
2023-03-16T01:27:09.401Z,98.46
2023-03-16T01:29:38.248Z,99.00
2023-03-16T01:32:08.733Z,97.60
2023-03-16T01:34:35.975Z,98.88
2023-03-16T01:37:04.797Z,99.22
2023-03-16T01:39:57.923Z,100.00
2023-03-16T01:42:25.047Z,100.00
2023-03-16T01:44:58.148Z,100.00
2023-03-16T01:47:38.439Z,99.75
2023-03-16T01:50:08.797Z,100.00
2023-03-16T01:52:40.126Z,99.80
2023-03-16T01:55:09.636Z,98.90
2023-03-16T01:57:42.785Z,99.35
2023-03-16T02:00:23.521Z,99.21
2023-03-16T02:03:19.964Z,99.44
2023-03-16T02:06:06.920Z,98.18
2023-03-16T02:08:37.219Z,98.52
2023-03-16T02:11:05.845Z,97.57
2023-03-16T02:14:02.580Z,100.00
2023-03-16T02:16:29.964Z,100.00
2023-03-16T02:18:57.250Z,100.00
2023-03-16T02:21:54.595Z,99.20
2023-03-16T02:24:22.622Z,98.50
2023-03-16T02:26:55.365Z,98.02
2023-03-16T02:29:41.917Z,96.58
2023-03-16T02:32:10.467Z,96.70
2023-03-16T02:34:39.456Z,96.63
2023-03-16T02:37:08.997Z,96.03
2023-03-16T02:39:36.375Z,95.92
2023-03-16T02:42:05.621Z,94.95
2023-03-16T02:44:37.270Z,95.77
2023-03-16T02:47:16.629Z,95.59
2023-03-16T02:49:45.889Z,96.31
2023-03-16T02:52:13.658Z,95.81
2023-03-16T02:54:40.854Z,95.33
2023-03-16T02:57:10.087Z,95.54
2023-03-16T02:59:37.636Z,96.01
2023-03-16T03:02:05.131Z,97.16
2023-03-16T03:04:33.205Z,96.45
2023-03-16T03:07:04.943Z,95.32
2023-03-16T03:09:44.695Z,95.35
2023-03-16T03:12:12.161Z,93.97
2023-03-16T03:14:40.304Z,95.04
2023-03-16T03:17:09.444Z,96.31
2023-03-16T03:19:37.144Z,96.50
2023-03-16T03:22:06.585Z,96.02
2023-03-16T03:24:34.874Z,95.78
2023-03-16T03:27:06.166Z,94.78
2023-03-16T03:29:37.084Z,94.62
2023-03-16T03:32:05.106Z,97.14
2023-03-16T03:34:32.637Z,98.04
2023-03-16T03:37:01.296Z,97.34
2023-03-16T03:39:29.073Z,96.34
2023-03-16T03:41:56.277Z,100.00
2023-03-16T03:44:25.333Z,100.00
2023-03-16T03:46:53.022Z,100.00
2023-03-16T03:49:20.893Z,99.10
2023-03-16T03:51:49.327Z,98.30
2023-03-16T03:54:22.473Z,98.36
2023-03-16T03:56:57.466Z,98.36
2023-03-16T03:59:24.933Z,98.74
2023-03-16T04:02:15.242Z,97.40
2023-03-16T04:04:50.116Z,97.27
2023-03-16T04:07:17.607Z,96.38
2023-03-16T04:09:45.937Z,97.88
2023-03-16T04:12:40.245Z,98.50
2023-03-16T04:15:11.293Z,98.37
2023-03-16T04:17:47.478Z,97.86
2023-03-16T04:20:19.194Z,98.26
2023-03-16T04:22:47.931Z,98.28
2023-03-16T04:25:18.184Z,98.35
2023-03-16T04:27:47.073Z,98.34
2023-03-16T04:30:16.271Z,99.76
2023-03-16T04:32:48.565Z,98.91
2023-03-16T04:35:19.669Z,99.55
2023-03-16T04:37:54.181Z,99.08
2023-03-16T04:40:26.841Z,97.74
2023-03-16T04:43:02.929Z,98.81
2023-03-16T04:45:32.605Z,98.89
2023-03-16T04:48:00.641Z,97.97
2023-03-16T04:50:28.137Z,98.73
2023-03-16T04:52:56.141Z,98.66
2023-03-16T04:55:23.434Z,99.13
2023-03-16T04:57:52.663Z,99.43
2023-03-16T05:00:22.384Z,97.96
2023-03-16T05:03:10.535Z,99.01
2023-03-16T05:05:39.153Z,98.44
2023-03-16T05:08:07.565Z,97.97
2023-03-16T05:10:36.959Z,99.00
2023-03-16T05:13:05.492Z,98.92
2023-03-16T05:15:34.022Z,97.86
2023-03-16T05:18:25.982Z,98.31
2023-03-16T05:20:56.158Z,97.44
2023-03-16T05:23:26.459Z,96.66
2023-03-16T05:26:02.528Z,97.38
2023-03-16T05:28:32.140Z,99.04
2023-03-16T05:31:06.610Z,99.33
2023-03-16T05:33:41.586Z,99.38
2023-03-16T05:36:13.351Z,99.05
2023-03-16T05:38:42.920Z,98.50
2023-03-16T05:41:15.025Z,97.42
2023-03-16T05:43:53.656Z,97.41
2023-03-16T05:46:23.903Z,97.57
2023-03-16T05:48:52.245Z,96.90
2023-03-16T05:51:21.318Z,96.78
2023-03-16T05:53:49.313Z,97.32
2023-03-16T05:56:30.997Z,96.40
2023-03-16T05:59:00.619Z,100.00
2023-03-16T06:01:28.842Z,100.00
2023-03-16T06:03:56.753Z,100.00
2023-03-16T06:06:27.141Z,100.00
2023-03-16T06:09:03.778Z,100.00
2023-03-16T06:11:33.041Z,100.00
2023-03-16T06:14:01.357Z,100.00
2023-03-16T06:16:31.463Z,100.00
2023-03-16T06:18:59.963Z,100.00
2023-03-16T06:21:29.444Z,100.00
2023-03-16T06:24:03.756Z,100.00
2023-03-16T06:26:31.147Z,100.00
2023-03-16T06:28:58.390Z,100.00
2023-03-16T06:31:26.190Z,99.33
2023-03-16T06:33:53.460Z,98.96
2023-03-16T06:36:21.433Z,98.48
2023-03-16T06:38:53.465Z,99.73
2023-03-16T06:41:29.034Z,98.52
2023-03-16T06:43:56.234Z,98.62
2023-03-16T06:46:23.551Z,98.50
2023-03-16T06:48:51.471Z,97.93
2023-03-16T06:51:19.682Z,98.50
2023-03-16T06:53:48.176Z,98.61
2023-03-16T06:56:15.648Z,98.72
2023-03-16T06:58:45.666Z,95.91
2023-03-16T07:01:13.038Z,96.54
2023-03-16T07:03:40.224Z,96.52
2023-03-16T07:06:18.154Z,100.00
2023-03-16T07:08:45.395Z,100.00
2023-03-16T07:11:12.955Z,100.00
2023-03-16T07:13:40.114Z,100.00
2023-03-16T07:16:08.495Z,100.00
2023-03-16T07:18:38.087Z,100.00
2023-03-16T07:21:07.681Z,100.00
2023-03-16T07:23:35.214Z,100.00
2023-03-16T07:26:08.332Z,100.00
2023-03-16T07:28:41.969Z,100.00
2023-03-16T07:31:09.662Z,100.00
2023-03-16T07:33:40.328Z,100.00
2023-03-16T07:36:11.171Z,100.00
2023-03-16T07:38:44.377Z,100.00
2023-03-16T07:41:12.887Z,100.00
2023-03-16T07:43:41.333Z,100.00
2023-03-16T07:46:13.925Z,99.78
2023-03-16T07:48:42.866Z,97.79
2023-03-16T07:51:13.366Z,98.53
2023-03-16T07:53:42.281Z,98.95
2023-03-16T07:56:18.267Z,96.51
2023-03-16T07:58:48.594Z,96.01
2023-03-16T08:01:16.506Z,95.80
2023-03-16T08:03:44.812Z,94.71
2023-03-16T08:06:12.364Z,93.30
2023-03-16T08:08:39.562Z,93.78
2023-03-16T08:11:07.467Z,100.00
2023-03-16T08:13:47.098Z,100.00
2023-03-16T08:16:15.121Z,98.97
2023-03-16T08:18:44.957Z,98.91
2023-03-16T08:21:12.591Z,97.44
2023-03-16T08:23:40.030Z,95.67
2023-03-16T08:26:09.129Z,96.47
2023-03-16T08:28:38.320Z,96.05
2023-03-16T08:31:10.800Z,95.28
2023-03-16T08:33:58.344Z,94.75
2023-03-16T08:36:31.497Z,93.99
2023-03-16T08:39:07.015Z,94.67
2023-03-16T08:41:43.136Z,94.54
2023-03-16T08:44:21.731Z,94.03
2023-03-16T08:46:49.031Z,95.02
2023-03-16T08:49:16.313Z,95.00
2023-03-16T08:51:45.084Z,94.49
2023-03-16T08:54:12.519Z,93.21
2023-03-16T08:56:39.752Z,93.75
2023-03-16T08:59:08.972Z,93.52
2023-03-16T09:01:37.805Z,100.00
2023-03-16T09:04:05.113Z,100.00
2023-03-16T09:06:32.460Z,100.00
2023-03-16T09:09:00.223Z,100.00
2023-03-16T09:11:30.755Z,100.00
2023-03-16T09:13:58.395Z,99.85
2023-03-16T09:16:26.293Z,99.04
2023-03-16T09:18:54.325Z,97.58
2023-03-16T09:21:21.620Z,97.27
2023-03-16T09:23:49.178Z,96.24
2023-03-16T09:26:16.527Z,94.85
2023-03-16T09:28:43.880Z,93.91
2023-03-16T09:31:17.961Z,93.91
2023-03-16T09:33:45.231Z,92.59
2023-03-16T09:36:13.642Z,92.85
2023-03-16T09:38:42.545Z,97.30
2023-03-16T09:41:27.666Z,99.10
2023-03-16T09:44:33.271Z,99.86
2023-03-16T09:47:03.663Z,98.49
2023-03-16T09:49:40.749Z,99.85
2023-03-16T09:52:44.953Z,100.00
2023-03-16T09:55:35.787Z,100.00
2023-03-16T09:58:12.374Z,98.34
2023-03-16T10:01:12.274Z,96.11
2023-03-16T10:04:06.966Z,95.58
2023-03-16T10:06:37.533Z,94.31
2023-03-16T10:09:33.325Z,92.18
2023-03-16T10:12:04.076Z,93.86
2023-03-16T10:15:09.440Z,93.03
2023-03-16T10:17:47.717Z,91.38
2023-03-16T10:20:17.744Z,90.98
2023-03-16T10:22:47.142Z,91.48
2023-03-16T10:25:35.840Z,93.27
2023-03-16T10:28:03.163Z,93.52
2023-03-16T10:30:36.292Z,91.35
2023-03-16T10:33:14.200Z,94.28
2023-03-16T10:35:46.949Z,94.71
2023-03-16T10:38:43.336Z,100.00
2023-03-16T10:41:20.634Z,100.00
2023-03-16T10:43:52.525Z,100.00
2023-03-16T10:46:20.049Z,100.00
2023-03-16T10:49:00.963Z,100.00
2023-03-16T10:51:31.158Z,100.00
2023-03-16T10:54:14.983Z,100.00
2023-03-16T10:56:42.517Z,98.63
2023-03-16T10:59:15.394Z,98.30
2023-03-16T11:01:46.285Z,96.54
2023-03-16T11:04:16.729Z,96.78
2023-03-16T11:06:56.096Z,96.04
2023-03-16T11:09:33.597Z,93.98
2023-03-16T11:12:13.350Z,95.39
2023-03-16T11:14:44.560Z,95.57
2023-03-16T11:17:38.335Z,96.04
2023-03-16T11:20:14.951Z,95.38
2023-03-16T11:22:45.760Z,95.13
2023-03-16T11:25:37.492Z,92.98
2023-03-16T11:28:13.086Z,100.00
2023-03-16T11:30:41.846Z,100.00
2023-03-16T11:33:10.603Z,100.00
2023-03-16T11:36:09.920Z,100.00
2023-03-16T11:39:05.883Z,100.00
2023-03-16T11:42:16.268Z,100.00
2023-03-16T11:45:10.193Z,96.68
2023-03-16T11:47:45.984Z,100.00
2023-03-16T11:50:35.098Z,100.00
2023-03-16T11:53:47.112Z,100.00
2023-03-16T11:56:20.208Z,100.00
2023-03-16T11:59:05.093Z,100.00
2023-03-16T12:02:00.095Z,100.00
2023-03-16T12:05:30.519Z,100.00
2023-03-16T12:08:24.820Z,97.36
2023-03-16T12:11:17.659Z,96.97
2023-03-16T12:14:14.779Z,100.00
2023-03-16T12:17:12.545Z,100.00
2023-03-16T12:19:53.804Z,100.00
2023-03-16T12:22:33.795Z,100.00
2023-03-16T12:25:04.376Z,100.00
2023-03-16T12:27:36.787Z,100.00
2023-03-16T12:30:25.818Z,100.00
2023-03-16T12:33:08.845Z,100.00
2023-03-16T12:35:52.751Z,100.00
2023-03-16T12:38:35.401Z,99.49
2023-03-16T12:41:12.080Z,99.12
2023-03-16T12:44:00.829Z,97.94
2023-03-16T12:46:37.698Z,97.22
2023-03-16T12:49:07.877Z,96.26
2023-03-16T12:51:41.530Z,98.40
2023-03-16T12:54:23.278Z,97.75
2023-03-16T12:56:51.899Z,98.21
2023-03-16T12:59:24.006Z,99.53
2023-03-16T13:01:58.042Z,99.00
2023-03-16T13:04:35.142Z,99.15
2023-03-16T13:07:16.341Z,98.33
2023-03-16T13:09:57.864Z,97.79
2023-03-16T13:12:32.778Z,97.15
2023-03-16T13:15:00.491Z,96.64
2023-03-16T13:17:33.084Z,96.11
2023-03-16T13:20:30.330Z,94.43
2023-03-16T13:23:17.330Z,92.00
2023-03-16T13:26:00.408Z,90.26
2023-03-16T13:28:31.742Z,93.28
2023-03-16T13:31:00.544Z,94.84
2023-03-16T13:33:31.340Z,95.21
2023-03-16T13:36:00.163Z,94.89
2023-03-16T13:38:28.843Z,94.65
2023-03-16T13:41:06.217Z,94.64
2023-03-16T13:43:35.928Z,93.89
2023-03-16T13:46:14.956Z,93.21
2023-03-16T13:48:42.840Z,94.23
2023-03-16T13:51:22.901Z,95.45
2023-03-16T13:53:51.213Z,93.63
2023-03-16T13:56:29.524Z,96.69
2023-03-16T13:58:58.732Z,100.00
2023-03-16T14:01:29.729Z,100.00
2023-03-16T14:03:59.020Z,98.00
2023-03-16T14:06:28.939Z,98.68
2023-03-16T14:09:06.764Z,100.00
2023-03-16T14:11:34.168Z,100.00
2023-03-16T14:14:13.239Z,100.00
2023-03-16T14:16:40.574Z,100.00
2023-03-16T14:19:19.413Z,100.00
2023-03-16T14:21:47.109Z,100.00
2023-03-16T14:24:37.405Z,100.00
2023-03-16T14:27:29.055Z,100.00
2023-03-16T14:30:15.320Z,100.00
2023-03-16T14:32:42.697Z,100.00
2023-03-16T14:35:18.436Z,100.00
2023-03-16T14:37:46.230Z,100.00
2023-03-16T14:40:30.859Z,100.00
2023-03-16T14:43:06.267Z,100.00
2023-03-16T14:45:35.959Z,100.00
2023-03-16T14:48:06.712Z,100.00
2023-03-16T14:50:34.930Z,100.00
2023-03-16T14:53:05.767Z,100.00
2023-03-16T14:55:33.029Z,100.00
2023-03-16T14:58:00.179Z,100.00
2023-03-16T15:00:27.488Z,100.00
2023-03-16T15:03:06.516Z,100.00
2023-03-16T15:05:46.166Z,100.00
2023-03-16T15:08:22.442Z,100.00
2023-03-16T15:10:50.975Z,100.00
2023-03-16T15:13:55.871Z,100.00
2023-03-16T15:16:23.458Z,100.00
2023-03-16T15:18:52.039Z,100.00
2023-03-16T15:21:29.695Z,100.00
2023-03-16T15:23:58.891Z,100.00
2023-03-16T15:26:28.350Z,100.00
2023-03-16T15:28:57.189Z,100.00
2023-03-16T15:31:24.943Z,100.00
2023-03-16T15:33:52.461Z,100.00
2023-03-16T15:36:22.462Z,100.00
2023-03-16T15:38:53.086Z,100.00
2023-03-16T15:41:20.694Z,100.00
2023-03-16T15:43:47.960Z,100.00
2023-03-16T15:46:15.268Z,100.00
2023-03-16T15:48:42.638Z,100.00
2023-03-16T15:51:22.047Z,100.00
2023-03-16T15:53:53.117Z,100.00
2023-03-16T15:56:23.868Z,100.00
2023-03-16T15:58:51.289Z,100.00
2023-03-16T16:01:27.850Z,100.00
2023-03-16T16:03:56.195Z,100.00
2023-03-16T16:06:24.338Z,100.00
2023-03-16T16:08:51.717Z,100.00
2023-03-16T16:11:23.914Z,100.00
2023-03-16T16:13:51.731Z,100.00
2023-03-16T16:16:19.913Z,100.00
2023-03-16T16:18:48.545Z,100.00
2023-03-16T16:21:23.186Z,100.00
2023-03-16T16:23:51.586Z,100.00
2023-03-16T16:26:41.508Z,100.00
2023-03-16T16:29:17.367Z,100.00
2023-03-16T16:31:44.803Z,100.00
2023-03-16T16:34:21.309Z,100.00
2023-03-16T16:36:49.262Z,100.00
2023-03-16T16:39:16.921Z,100.00
2023-03-16T16:41:44.416Z,100.00
2023-03-16T16:44:23.770Z,100.00
2023-03-16T16:46:52.327Z,100.00
2023-03-16T16:49:22.746Z,100.00
2023-03-16T16:51:51.577Z,100.00
2023-03-16T16:54:22.098Z,100.00
2023-03-16T16:56:57.621Z,100.00
2023-03-16T16:59:33.445Z,100.00
2023-03-16T17:02:26.138Z,100.00
2023-03-16T17:04:53.456Z,100.00
2023-03-16T17:07:20.783Z,100.00
2023-03-16T17:09:48.034Z,100.00
2023-03-16T17:12:21.911Z,100.00
2023-03-16T17:14:50.698Z,100.00
2023-03-16T17:17:18.711Z,100.00
2023-03-16T17:19:50.088Z,100.00
2023-03-16T17:22:23.252Z,100.00
2023-03-16T17:24:51.697Z,100.00
2023-03-16T17:27:25.029Z,100.00
2023-03-16T17:29:53.321Z,100.00
2023-03-16T17:32:23.055Z,100.00
2023-03-16T17:34:51.529Z,100.00
2023-03-16T17:37:21.230Z,100.00
2023-03-16T17:39:49.139Z,100.00
2023-03-16T17:42:18.847Z,100.00
2023-03-16T17:44:50.524Z,100.00
2023-03-16T17:47:24.600Z,100.00
2023-03-16T17:49:52.609Z,100.00
2023-03-16T17:52:23.512Z,100.00
2023-03-16T17:54:52.758Z,100.00
2023-03-16T17:57:29.529Z,100.00
2023-03-16T17:59:57.074Z,100.00
2023-03-16T18:02:41.166Z,100.00
2023-03-16T18:05:20.832Z,100.00
2023-03-16T18:07:48.671Z,100.00
2023-03-16T18:10:25.453Z,100.00
2023-03-16T18:13:03.796Z,100.00
2023-03-16T18:15:33.920Z,100.00
2023-03-16T18:18:02.596Z,100.00
2023-03-16T18:20:34.475Z,100.00
2023-03-16T18:23:14.008Z,100.00
2023-03-16T18:25:46.980Z,100.00
2023-03-16T18:28:15.230Z,100.00
2023-03-16T18:30:44.822Z,100.00
2023-03-16T18:33:32.696Z,100.00
2023-03-16T18:36:01.985Z,100.00
2023-03-16T18:38:40.046Z,100.00
2023-03-16T18:41:28.754Z,100.00
2023-03-16T18:43:58.952Z,100.00
2023-03-16T18:46:35.604Z,100.00
2023-03-16T18:49:15.139Z,100.00
2023-03-16T18:51:43.518Z,100.00
2023-03-16T18:54:25.074Z,100.00
2023-03-16T18:56:54.042Z,100.00
2023-03-16T18:59:21.738Z,100.00
2023-03-16T19:01:49.125Z,100.00
2023-03-16T19:04:29.381Z,100.00
2023-03-16T19:06:57.559Z,100.00
2023-03-16T19:09:28.809Z,100.00
2023-03-16T19:11:55.975Z,100.00
2023-03-16T19:14:24.625Z,100.00
2023-03-16T19:16:53.368Z,100.00
2023-03-16T19:19:22.105Z,100.00
2023-03-16T19:21:52.845Z,100.00
2023-03-16T19:24:29.120Z,100.00
2023-03-16T19:26:56.956Z,100.00
2023-03-16T19:29:33.417Z,100.00
2023-03-16T19:32:01.366Z,100.00
2023-03-16T19:34:28.972Z,100.00
2023-03-16T19:36:56.380Z,100.00
2023-03-16T19:39:23.588Z,100.00
2023-03-16T19:41:56.624Z,100.00
2023-03-16T19:44:26.504Z,100.00
2023-03-16T19:46:55.128Z,100.00
2023-03-16T19:49:27.178Z,100.00
2023-03-16T19:51:56.159Z,100.00
2023-03-16T19:54:25.792Z,100.00
2023-03-16T19:56:53.835Z,100.00
2023-03-16T19:59:21.594Z,100.00
2023-03-16T20:01:48.772Z,100.00
2023-03-16T20:04:22.246Z,100.00
2023-03-16T20:06:50.131Z,100.00
2023-03-16T20:09:18.220Z,100.00
2023-03-16T20:11:47.199Z,100.00
2023-03-16T20:14:23.919Z,100.00
2023-03-16T20:16:51.205Z,100.00
2023-03-16T20:19:20.783Z,100.00
2023-03-16T20:21:49.449Z,100.00
2023-03-16T20:24:19.365Z,100.00
2023-03-16T20:26:51.481Z,100.00
2023-03-16T20:29:21.659Z,100.00
2023-03-16T20:31:48.980Z,100.00
2023-03-16T20:34:23.789Z,100.00
2023-03-16T20:36:50.958Z,100.00
2023-03-16T20:39:18.281Z,100.00
2023-03-16T20:41:45.658Z,100.00
2023-03-16T20:44:15.697Z,100.00
2023-03-16T20:46:44.932Z,100.00
2023-03-16T20:49:25.418Z,100.00
2023-03-16T20:51:53.066Z,100.00
2023-03-16T20:54:20.787Z,100.00
2023-03-16T20:56:48.310Z,100.00
2023-03-16T20:59:23.992Z,100.00
2023-03-16T21:01:54.719Z,100.00
2023-03-16T21:04:27.737Z,100.00
2023-03-16T21:06:56.059Z,100.00
2023-03-16T21:09:23.291Z,100.00
2023-03-16T21:11:50.614Z,100.00
2023-03-16T21:14:22.493Z,100.00
2023-03-16T21:16:51.069Z,100.00
2023-03-16T21:19:21.200Z,100.00
2023-03-16T21:21:48.530Z,100.00
2023-03-16T21:24:16.272Z,100.00
2023-03-16T21:26:45.166Z,100.00
2023-03-16T21:29:20.900Z,100.00
2023-03-16T21:31:48.664Z,100.00
2023-03-16T21:34:24.380Z,100.00
2023-03-16T21:36:51.920Z,100.00
2023-03-16T21:39:22.653Z,100.00
2023-03-16T21:41:50.943Z,100.00
2023-03-16T21:44:18.625Z,100.00
2023-03-16T21:46:47.487Z,100.00
2023-03-16T21:49:15.976Z,100.00
2023-03-16T21:51:43.526Z,100.00
2023-03-16T21:54:18.131Z,100.00
2023-03-16T21:56:46.059Z,100.00
2023-03-16T21:59:13.475Z,100.00
2023-03-16T22:01:58.245Z,100.00
2023-03-16T22:04:28.169Z,100.00
2023-03-16T22:06:55.433Z,100.00
2023-03-16T22:09:22.859Z,100.00
2023-03-16T22:11:50.102Z,100.00
2023-03-16T22:14:17.277Z,100.00
2023-03-16T22:16:44.495Z,100.00
2023-03-16T22:19:15.981Z,100.00
2023-03-16T22:21:44.426Z,100.00
2023-03-16T22:24:18.216Z,100.00
2023-03-16T22:26:46.670Z,100.00
2023-03-16T22:29:21.438Z,100.00
2023-03-16T22:31:49.478Z,100.00
2023-03-16T22:34:27.763Z,100.00
2023-03-16T22:36:55.923Z,100.00
2023-03-16T22:39:24.537Z,100.00
2023-03-16T22:41:52.161Z,100.00
2023-03-16T22:44:23.752Z,100.00
2023-03-16T22:46:51.217Z,100.00
2023-03-16T22:49:26.344Z,100.00
2023-03-16T22:51:56.483Z,100.00
2023-03-16T22:54:27.272Z,100.00
2023-03-16T22:56:54.757Z,100.00
2023-03-16T22:59:26.840Z,100.00
2023-03-16T23:01:54.019Z,100.00
2023-03-16T23:04:24.617Z,100.00
2023-03-16T23:06:53.614Z,100.00
2023-03-16T23:09:22.119Z,100.00
2023-03-16T23:11:54.772Z,100.00
2023-03-16T23:23:26.353Z,100.00
2023-03-16T23:26:17.664Z,100.00
2023-03-16T23:28:46.429Z,100.00
2023-03-16T23:31:16.022Z,100.00
2023-03-16T23:33:43.991Z,100.00
2023-03-16T23:36:16.390Z,100.00
2023-03-16T23:38:43.760Z,100.00
2023-03-16T23:41:13.031Z,100.00
2023-03-16T23:43:41.995Z,100.00
2023-03-16T23:46:14.277Z,100.00
2023-03-16T23:48:44.617Z,100.00
2023-03-16T23:51:26.503Z,100.00
2023-03-16T23:53:54.270Z,100.00
2023-03-16T23:56:22.864Z,100.00
2023-03-16T23:58:51.148Z,100.00
